Time;durP1;ratioP1;P1;durP2;ratioP2;P2;SDS_P1;SDS_P2;PMS_P1;PMS_P2;Temp;Humidity;BMP_temperature;BMP_pressure;BME280_temperature;BME280_humidity;BME280_pressure;Samples;Min_cycle;Max_cycle;Signal;HPM_P1;HPM_P2
2023/11/29 00:01:37;;;;;;;11.50;10.57;;;2.40;99.90;;;;;;5025982;28;20216;-81
2023/11/29 00:04:05;;;;;;;10.20;9.50;;;2.50;99.90;;;;;;5027688;28;20784;-79
2023/11/29 00:06:34;;;;;;;11.55;10.85;;;2.60;99.90;;;;;;5022826;28;20324;-80
2023/11/29 00:09:02;;;;;;;11.60;10.68;;;2.50;99.90;;;;;;5026779;28;20195;-80
2023/11/29 00:11:33;;;;;;;12.27;11.27;;;2.50;99.90;;;;;;5024245;28;20199;-79
2023/11/29 00:14:01;;;;;;;11.30;10.43;;;2.40;99.90;;;;;;5026608;28;20788;-79
2023/11/29 00:16:31;;;;;;;11.27;10.35;;;2.50;99.90;;;;;;5021757;28;20327;-79
2023/11/29 00:18:59;;;;;;;10.50;9.70;;;2.50;99.90;;;;;;5026791;28;20210;-80
2023/11/29 00:21:28;;;;;;;11.57;10.63;;;2.50;99.90;;;;;;5026208;28;20215;-80
2023/11/29 00:23:56;;;;;;;11.52;10.65;;;2.60;99.90;;;;;;5029677;28;20225;-80
2023/11/29 00:26:24;;;;;;;10.75;9.98;;;2.60;99.90;;;;;;5022912;28;20219;-80
2023/11/29 00:28:54;;;;;;;11.55;10.75;;;2.60;99.90;;;;;;5029333;28;21193;-80
2023/11/29 00:31:22;;;;;;;11.10;10.30;;;2.60;99.90;;;;;;5027698;28;20209;-79
2023/11/29 00:33:50;;;;;;;11.27;10.00;;;2.70;99.90;;;;;;5030081;28;20230;-80
2023/11/29 00:36:18;;;;;;;12.00;11.10;;;2.70;99.90;;;;;;5029354;28;20214;-80
2023/11/29 00:38:46;;;;;;;11.07;10.38;;;2.70;99.90;;;;;;5029013;28;20198;-80
2023/11/29 00:41:14;;;;;;;11.18;10.27;;;2.70;99.90;;;;;;5025490;28;20198;-80
2023/11/29 00:43:43;;;;;;;11.05;10.18;;;2.60;99.90;;;;;;5030210;28;20299;-80
2023/11/29 00:46:12;;;;;;;11.35;10.52;;;2.60;99.90;;;;;;5027667;28;20695;-79
2023/11/29 00:48:40;;;;;;;11.38;10.57;;;2.60;99.90;;;;;;5028210;28;20840;-79
2023/11/29 00:51:08;;;;;;;10.40;9.60;;;2.70;99.90;;;;;;5020417;28;20210;-78
2023/11/29 00:53:36;;;;;;;11.65;10.75;;;2.60;99.90;;;;;;5028972;28;20228;-80
2023/11/29 00:56:05;;;;;;;11.32;10.40;;;2.60;99.90;;;;;;5029342;28;20779;-80
2023/11/29 00:58:33;;;;;;;11.55;10.55;;;2.70;99.90;;;;;;5028350;28;20695;-80
2023/11/29 01:01:02;;;;;;;9.95;9.25;;;2.60;99.90;;;;;;5027304;28;20205;-81
2023/11/29 01:03:31;;;;;;;11.10;10.30;;;2.60;99.90;;;;;;5025993;28;20237;-79
2023/11/29 01:06:00;;;;;;;10.45;9.70;;;2.60;99.90;;;;;;5027566;28;20194;-79
2023/11/29 01:08:28;;;;;;;11.20;10.07;;;2.60;99.90;;;;;;5031031;28;20202;-79
2023/11/29 01:10:56;;;;;;;11.32;10.43;;;2.60;99.90;;;;;;5035413;28;20203;-80
2023/11/29 01:13:25;;;;;;;9.43;8.75;;;2.60;99.90;;;;;;5030522;28;20203;-79
2023/11/29 01:15:53;;;;;;;9.90;9.20;;;2.50;99.90;;;;;;5030038;28;20661;-79
2023/11/29 01:18:21;;;;;;;9.70;8.98;;;2.60;99.90;;;;;;5031863;28;20198;-79
2023/11/29 01:20:51;;;;;;;9.75;8.95;;;2.60;99.90;;;;;;5033033;28;20291;-79
2023/11/29 01:23:19;;;;;;;10.30;9.50;;;2.70;99.90;;;;;;5025583;28;20205;-80
2023/11/29 01:25:47;;;;;;;10.57;9.77;;;2.60;99.90;;;;;;5029337;28;20209;-80
2023/11/29 01:28:15;;;;;;;10.57;9.77;;;2.60;99.90;;;;;;5029598;28;20234;-80
2023/11/29 01:30:44;;;;;;;11.07;10.07;;;2.60;99.90;;;;;;5032358;28;20815;-79
2023/11/29 01:33:12;;;;;;;9.48;8.82;;;2.60;99.90;;;;;;5030018;28;20214;-79
2023/11/29 01:35:40;;;;;;;9.57;9.00;;;2.70;99.90;;;;;;5028416;28;20601;-79
2023/11/29 01:38:10;;;;;;;9.00;8.40;;;2.60;99.90;;;;;;5024486;28;20294;-80
2023/11/29 01:40:38;;;;;;;9.48;8.88;;;2.60;99.90;;;;;;5024844;28;20206;-80
2023/11/29 01:43:06;;;;;;;9.07;8.48;;;2.60;99.90;;;;;;5024849;28;20213;-79
2023/11/29 01:45:34;;;;;;;9.65;9.05;;;2.50;99.90;;;;;;5026356;28;20309;-79
2023/11/29 01:48:03;;;;;;;9.10;8.50;;;2.60;99.90;;;;;;5027308;28;20894;-79
2023/11/29 01:50:36;;;;;;;9.70;8.98;;;2.50;99.90;;;;;;5028100;28;20257;-78
2023/11/29 01:53:04;;;;;;;9.40;8.90;;;2.50;99.90;;;;;;5027576;28;20199;-79
2023/11/29 01:55:40;;;;;;;8.60;8.10;;;2.50;99.90;;;;;;5021532;28;20206;-79
2023/11/29 01:58:08;;;;;;;9.25;8.65;;;2.50;99.90;;;;;;5025474;28;20195;-79
2023/11/29 02:00:37;;;;;;;9.00;8.40;;;2.40;99.90;;;;;;5021627;28;20198;-79
2023/11/29 02:03:05;;;;;;;9.70;9.00;;;2.40;99.90;;;;;;5022367;28;20213;-78
2023/11/29 02:05:33;;;;;;;9.80;9.10;;;2.40;99.90;;;;;;5024662;28;20211;-80
2023/11/29 02:08:02;;;;;;;8.65;8.15;;;2.40;99.90;;;;;;5027238;28;20218;-78
2023/11/29 02:10:30;;;;;;;8.52;8.02;;;2.40;99.90;;;;;;5026567;28;20281;-79
2023/11/29 02:13:00;;;;;;;8.13;7.60;;;2.40;99.90;;;;;;5025756;28;20201;-79
2023/11/29 02:15:28;;;;;;;9.10;8.38;;;2.40;99.90;;;;;;5022903;28;20333;-79
2023/11/29 02:17:56;;;;;;;8.30;7.80;;;2.40;99.90;;;;;;5024722;28;20202;-80
2023/11/29 02:20:26;;;;;;;8.82;8.32;;;2.30;99.90;;;;;;5027775;28;20199;-79
2023/11/29 02:23:00;;;;;;;8.82;8.13;;;2.20;99.90;;;;;;5026930;28;20207;-78
2023/11/29 02:25:30;;;;;;;8.70;8.07;;;2.20;99.90;;;;;;5026322;28;20305;-79
2023/11/29 02:28:00;;;;;;;7.97;7.38;;;2.10;99.90;;;;;;5025773;28;20220;-79
2023/11/29 02:30:28;;;;;;;7.95;7.55;;;2.10;99.90;;;;;;5022617;28;20670;-79
2023/11/29 02:32:56;;;;;;;8.18;7.70;;;2.10;99.90;;;;;;5022506;28;20293;-79
2023/11/29 02:35:24;;;;;;;9.30;8.70;;;2.10;99.90;;;;;;5030037;28;20218;-79
2023/11/29 02:37:52;;;;;;;8.23;7.68;;;2.10;99.90;;;;;;5039902;28;20203;-80
2023/11/29 02:40:20;;;;;;;7.57;7.18;;;2.10;99.90;;;;;;5036336;28;20203;-80
2023/11/29 02:42:50;;;;;;;9.10;8.50;;;2.10;99.90;;;;;;5035241;28;20293;-80
2023/11/29 02:45:18;;;;;;;8.27;7.78;;;2.00;99.90;;;;;;5033228;28;20227;-79
2023/11/29 02:47:46;;;;;;;8.32;7.82;;;2.00;99.90;;;;;;5030263;28;20225;-80
2023/11/29 02:50:17;;;;;;;11.00;10.05;;;1.90;99.90;;;;;;5028179;28;20190;-79
2023/11/29 02:52:48;;;;;;;9.85;8.95;;;1.90;99.90;;;;;;5030974;28;20199;-79
2023/11/29 02:55:16;;;;;;;9.63;8.93;;;1.90;99.90;;;;;;5032509;28;20227;-80
2023/11/29 02:57:44;;;;;;;8.25;7.60;;;1.90;99.90;;;;;;5030660;28;20199;-80
2023/11/29 03:00:14;;;;;;;9.00;8.40;;;2.00;99.90;;;;;;5029386;28;20282;-80
2023/11/29 03:02:42;;;;;;;8.48;7.97;;;1.90;99.90;;;;;;5028567;28;20199;-80
2023/11/29 03:05:11;;;;;;;9.52;8.77;;;2.00;99.90;;;;;;5026237;28;20246;-81
2023/11/29 03:07:39;;;;;;;13.73;10.70;;;2.00;99.90;;;;;;5025294;28;20223;-81
2023/11/29 03:10:08;;;;;;;12.88;10.48;;;1.90;99.90;;;;;;5027182;28;20217;-80
2023/11/29 03:12:36;;;;;;;9.30;8.60;;;1.90;99.90;;;;;;5028257;28;20849;-81
2023/11/29 03:15:05;;;;;;;8.93;8.43;;;1.90;99.90;;;;;;5024326;28;20986;-80
2023/11/29 03:17:34;;;;;;;8.93;8.40;;;1.90;99.90;;;;;;5024520;28;20191;-80
2023/11/29 03:20:03;;;;;;;8.57;7.88;;;1.90;99.90;;;;;;5025620;28;20202;-81
2023/11/29 03:22:31;;;;;;;8.73;8.07;;;1.80;99.90;;;;;;5022985;28;20216;-79
2023/11/29 03:24:59;;;;;;;9.85;8.32;;;1.80;99.90;;;;;;5023661;28;20227;-79
2023/11/29 03:27:27;;;;;;;9.48;8.77;;;1.80;99.90;;;;;;5020881;28;20219;-79
2023/11/29 03:29:56;;;;;;;10.55;9.55;;;1.80;99.90;;;;;;5019209;28;20206;-79
2023/11/29 03:32:26;;;;;;;10.57;9.65;;;1.80;99.90;;;;;;5024591;28;20260;-79
2023/11/29 03:34:55;;;;;;;9.45;8.75;;;1.70;99.90;;;;;;5023428;28;20237;-79
2023/11/29 03:37:24;;;;;;;8.75;8.05;;;1.70;99.90;;;;;;5020570;28;20306;-79
2023/11/29 03:39:52;;;;;;;7.90;7.30;;;1.70;99.90;;;;;;5021322;28;20206;-79
2023/11/29 03:42:20;;;;;;;8.82;8.23;;;1.70;99.90;;;;;;5025462;28;20218;-78
2023/11/29 03:44:48;;;;;;;8.70;8.05;;;1.70;99.90;;;;;;5023639;28;20249;-80
2023/11/29 03:47:16;;;;;;;8.05;7.45;;;1.70;99.90;;;;;;5021314;28;21636;-79
2023/11/29 03:49:44;;;;;;;9.25;8.52;;;1.60;99.90;;;;;;5023006;28;20210;-80
2023/11/29 03:52:14;;;;;;;8.38;7.88;;;1.60;99.90;;;;;;5024851;28;20195;-80
2023/11/29 03:54:42;;;;;;;8.38;7.78;;;1.70;99.90;;;;;;5024525;28;20250;-80
2023/11/29 03:57:10;;;;;;;7.88;7.30;;;1.60;99.90;;;;;;5024781;28;20642;-79
2023/11/29 03:59:38;;;;;;;8.00;7.50;;;1.60;99.90;;;;;;5024359;28;20192;-80
2023/11/29 04:02:07;;;;;;;9.07;8.27;;;1.70;99.90;;;;;;5027089;28;20238;-80
2023/11/29 04:04:35;;;;;;;8.73;8.02;;;1.60;99.90;;;;;;5023464;28;20214;-80
2023/11/29 04:07:03;;;;;;;8.10;7.50;;;1.60;99.90;;;;;;5020001;28;20268;-79
2023/11/29 04:09:33;;;;;;;8.13;7.63;;;1.50;99.90;;;;;;5022022;28;20301;-79
2023/11/29 04:12:01;;;;;;;8.82;8.23;;;1.50;99.90;;;;;;5025790;28;20195;-79
2023/11/29 04:14:29;;;;;;;8.45;7.75;;;1.50;99.90;;;;;;5023460;28;20211;-80
2023/11/29 04:16:58;;;;;;;8.35;7.68;;;1.60;99.90;;;;;;5016910;28;20202;-78
2023/11/29 04:19:26;;;;;;;7.63;7.10;;;1.50;99.90;;;;;;5018993;28;20226;-78
2023/11/29 04:21:56;;;;;;;7.93;7.40;;;1.50;99.90;;;;;;5017672;28;20202;-79
2023/11/29 04:24:24;;;;;;;7.70;7.20;;;1.50;99.90;;;;;;5016316;28;20252;-79
2023/11/29 04:26:53;;;;;;;9.40;8.60;;;1.60;99.90;;;;;;5016668;28;20211;-79
2023/11/29 04:29:21;;;;;;;8.05;7.50;;;1.50;99.90;;;;;;5020032;28;20230;-80
2023/11/29 04:31:49;;;;;;;8.70;8.00;;;1.50;99.90;;;;;;5021158;28;20198;-79
2023/11/29 04:34:18;;;;;;;7.20;6.60;;;1.40;99.90;;;;;;5024071;28;20226;-79
2023/11/29 04:37:00;;;;;;;8.48;7.97;;;1.40;99.90;;;;;;5021382;28;20198;-79
2023/11/29 04:39:28;;;;;;;8.00;7.30;;;1.40;99.90;;;;;;5020561;28;20684;-79
2023/11/29 04:41:58;;;;;;;8.05;7.38;;;1.40;99.90;;;;;;5019485;28;20202;-79
2023/11/29 04:44:26;;;;;;;8.18;7.60;;;1.50;99.90;;;;;;5018649;28;20663;-78
2023/11/29 04:46:54;;;;;;;8.02;7.43;;;1.50;99.90;;;;;;5020323;28;20636;-79
2023/11/29 04:49:22;;;;;;;8.63;8.02;;;1.50;99.90;;;;;;5019607;28;20214;-80
2023/11/29 04:51:50;;;;;;;9.15;8.13;;;1.50;99.90;;;;;;5019519;28;20208;-79
2023/11/29 04:54:18;;;;;;;8.52;7.93;;;1.50;99.90;;;;;;5019052;28;20223;-79
2023/11/29 04:56:47;;;;;;;8.73;8.00;;;1.50;99.90;;;;;;5018298;28;20281;-80
2023/11/29 04:59:16;;;;;;;9.00;8.35;;;1.40;99.90;;;;;;5022307;28;20750;-79
2023/11/29 05:01:44;;;;;;;10.35;9.45;;;1.40;99.90;;;;;;5020372;28;20215;-78
2023/11/29 05:04:13;;;;;;;10.13;9.20;;;1.50;99.90;;;;;;5022296;28;20306;-78
2023/11/29 05:06:41;;;;;;;10.50;9.55;;;1.50;99.90;;;;;;5024753;28;20194;-78
2023/11/29 05:09:14;;;;;;;9.27;8.48;;;1.50;99.90;;;;;;5024071;28;20206;-78
2023/11/29 05:11:42;;;;;;;12.32;10.35;;;1.50;99.90;;;;;;5021618;28;20687;-78
2023/11/29 05:14:11;;;;;;;12.55;11.32;;;1.50;99.90;;;;;;5026666;28;20309;-79
2023/11/29 05:16:44;;;;;;;9.93;9.02;;;1.50;99.90;;;;;;5021899;28;20221;-78
2023/11/29 05:19:12;;;;;;;9.40;8.65;;;1.60;99.90;;;;;;5015143;28;20195;-79
2023/11/29 05:21:41;;;;;;;9.00;8.40;;;1.60;99.90;;;;;;5020328;28;20565;-80
2023/11/29 05:24:09;;;;;;;8.40;7.80;;;1.70;99.90;;;;;;5024519;28;20222;-80
2023/11/29 05:26:37;;;;;;;8.45;7.95;;;1.70;99.90;;;;;;5021879;28;20195;-79
2023/11/29 05:29:05;;;;;;;9.10;8.40;;;1.70;99.90;;;;;;5031763;28;20245;-79
2023/11/29 05:31:34;;;;;;;8.63;7.93;;;1.60;99.90;;;;;;5013801;28;20261;-77
2023/11/29 05:34:06;;;;;;;8.93;8.23;;;1.70;99.90;;;;;;5016480;28;20221;-79
2023/11/29 05:36:34;;;;;;;9.20;8.50;;;1.70;99.90;;;;;;5015820;28;20262;-78
2023/11/29 05:39:03;;;;;;;15.65;14.10;;;1.70;99.90;;;;;;5015454;28;20302;-78
2023/11/29 05:41:31;;;;;;;8.88;8.23;;;1.70;99.90;;;;;;5015279;28;20213;-78
2023/11/29 05:43:59;;;;;;;8.27;7.60;;;1.70;99.90;;;;;;5014364;28;20226;-77
2023/11/29 05:46:29;;;;;;;8.77;8.18;;;1.70;99.90;;;;;;5016816;28;20203;-78
2023/11/29 05:48:58;;;;;;;9.45;8.55;;;1.70;99.90;;;;;;5013055;28;20226;-78
2023/11/29 05:51:28;;;;;;;10.32;9.52;;;1.70;99.90;;;;;;5015906;28;20253;-78
2023/11/29 05:53:57;;;;;;;9.50;8.68;;;1.70;99.90;;;;;;5019807;28;20217;-78
2023/11/29 05:56:25;;;;;;;8.73;8.00;;;1.80;99.90;;;;;;5020235;28;20269;-78
2023/11/29 05:58:53;;;;;;;8.95;8.27;;;1.70;99.90;;;;;;5018325;28;20192;-78
2023/11/29 06:01:22;;;;;;;9.07;8.38;;;1.70;99.90;;;;;;5019152;28;20206;-78
2023/11/29 06:03:50;;;;;;;8.98;8.07;;;1.80;99.90;;;;;;5015167;28;20218;-78
2023/11/29 06:06:18;;;;;;;9.02;8.18;;;1.80;99.90;;;;;;5017889;28;20214;-80
2023/11/29 06:08:48;;;;;;;8.25;7.65;;;1.80;99.90;;;;;;5024027;28;20668;-80
2023/11/29 06:11:16;;;;;;;8.10;7.50;;;1.80;99.90;;;;;;5015136;28;20207;-79
2023/11/29 06:13:50;;;;;;;18.05;15.82;;;1.90;99.90;;;;;;5017539;28;20222;-80
2023/11/29 06:16:18;;;;;;;9.38;8.68;;;1.80;99.90;;;;;;5015251;28;20217;-80
2023/11/29 06:18:46;;;;;;;8.77;8.18;;;2.00;99.90;;;;;;5023796;28;20589;-81
2023/11/29 06:21:14;;;;;;;10.48;9.60;;;1.90;99.90;;;;;;5023910;28;20272;-80
2023/11/29 06:23:42;;;;;;;9.15;8.43;;;1.90;99.90;;;;;;5028726;28;20215;-79
2023/11/29 06:26:13;;;;;;;9.07;8.25;;;1.90;99.90;;;;;;5024176;28;20726;-79
2023/11/29 06:28:41;;;;;;;8.75;8.25;;;1.80;1.00;;;;;;5021001;28;20199;-78
2023/11/29 06:31:10;;;;;;;8.98;8.18;;;1.80;1.00;;;;;;5019186;28;20288;-78
2023/11/29 06:33:38;;;;;;;10.48;9.52;;;1.90;1.00;;;;;;5020817;28;20344;-78
2023/11/29 06:36:07;;;;;;;9.98;9.05;;;1.90;1.00;;;;;;5019752;28;20190;-78
2023/11/29 06:38:35;;;;;;;10.63;9.77;;;1.90;1.00;;;;;;5019102;28;20225;-78
2023/11/29 06:41:04;;;;;;;10.55;9.95;;;1.90;1.00;;;;;;5014359;28;20195;-78
2023/11/29 06:43:34;;;;;;;9.68;8.88;;;1.90;1.00;;;;;;5021029;28;20310;-78
2023/11/29 06:46:02;;;;;;;9.48;8.77;;;1.90;1.00;;;;;;5016811;28;20755;-79
2023/11/29 06:48:31;;;;;;;10.00;9.25;;;2.00;1.00;;;;;;5020082;28;20549;-78
2023/11/29 06:51:01;;;;;;;9.30;8.70;;;1.90;1.00;;;;;;5015734;28;20373;-78
2023/11/29 06:53:31;;;;;;;9.07;8.38;;;1.90;99.90;;;;;;5020519;28;20197;-79
2023/11/29 06:55:59;;;;;;;8.30;7.60;;;2.00;1.00;;;;;;5017923;28;20226;-79
2023/11/29 06:58:27;;;;;;;9.68;8.98;;;2.00;99.90;;;;;;5015852;28;20202;-78
2023/11/29 07:00:57;;;;;;;9.88;9.05;;;2.10;99.90;;;;;;5014328;28;20680;-79
2023/11/29 07:03:26;;;;;;;9.05;8.45;;;2.10;99.90;;;;;;5014112;28;20579;-79
2023/11/29 07:05:57;;;;;;;8.50;8.00;;;2.10;99.90;;;;;;5013251;28;20199;-78
2023/11/29 07:08:25;;;;;;;9.15;8.35;;;2.20;99.90;;;;;;5009420;28;20289;-78
2023/11/29 07:10:54;;;;;;;8.32;7.70;;;2.20;99.90;;;;;;5016758;28;20226;-78
2023/11/29 07:13:22;;;;;;;8.77;8.15;;;2.20;99.90;;;;;;5018847;28;20202;-79
2023/11/29 07:15:55;;;;;;;8.73;8.20;;;2.20;99.90;;;;;;5021770;28;20202;-79
2023/11/29 07:18:26;;;;;;;7.88;7.38;;;2.30;99.90;;;;;;5020501;28;20203;-78
2023/11/29 07:20:54;;;;;;;7.82;7.22;;;2.30;99.90;;;;;;5017717;28;20229;-77
2023/11/29 07:23:22;;;;;;;8.05;7.45;;;2.30;99.90;;;;;;5016821;28;20215;-78
2023/11/29 07:25:51;;;;;;;7.72;7.22;;;2.30;99.90;;;;;;5021173;28;20276;-79
2023/11/29 07:28:19;;;;;;;7.50;7.00;;;2.30;99.90;;;;;;5015836;28;20257;-78
2023/11/29 07:30:47;;;;;;;7.80;7.30;;;2.30;99.90;;;;;;5020905;28;20219;-78
2023/11/29 07:33:15;;;;;;;8.52;7.93;;;2.30;99.90;;;;;;5017182;28;20229;-78
2023/11/29 07:35:45;;;;;;;8.40;7.88;;;2.30;99.90;;;;;;5011786;28;20715;-77
2023/11/29 07:38:14;;;;;;;7.95;7.30;;;2.10;99.90;;;;;;5018506;28;20207;-78
2023/11/29 07:40:42;;;;;;;7.57;7.18;;;2.20;99.90;;;;;;5020628;28;20190;-78
2023/11/29 07:43:10;;;;;;;8.27;7.78;;;2.20;99.90;;;;;;5013200;28;20198;-78
2023/11/29 07:45:41;;;;;;;8.77;8.18;;;2.30;99.90;;;;;;5016407;28;20526;-79
2023/11/29 07:48:10;;;;;;;8.18;7.65;;;2.20;99.90;;;;;;5014561;28;20977;-78
2023/11/29 07:50:38;;;;;;;7.43;6.95;;;2.30;99.90;;;;;;5017577;28;20578;-79
2023/11/29 07:53:08;;;;;;;9.00;8.48;;;2.30;99.90;;;;;;5016928;28;20283;-78
2023/11/29 07:55:36;;;;;;;8.20;7.70;;;2.30;99.90;;;;;;5014093;28;20214;-78
2023/11/29 07:58:05;;;;;;;8.13;7.63;;;2.40;99.90;;;;;;5013187;28;20728;-79
2023/11/29 08:00:33;;;;;;;8.60;8.10;;;2.30;99.90;;;;;;5013636;28;20199;-79
2023/11/29 08:03:01;;;;;;;8.10;7.70;;;2.30;99.90;;;;;;5012066;28;20206;-79
2023/11/29 08:05:30;;;;;;;7.40;6.82;;;2.30;99.90;;;;;;5010032;28;21554;-80
2023/11/29 08:07:58;;;;;;;8.10;7.60;;;2.30;99.90;;;;;;5014335;28;20231;-79
2023/11/29 08:10:29;;;;;;;8.43;7.82;;;2.30;99.90;;;;;;5015941;28;20237;-78
2023/11/29 08:12:58;;;;;;;7.57;7.00;;;2.30;99.90;;;;;;5016421;28;20724;-78
2023/11/29 08:15:28;;;;;;;7.47;6.97;;;2.30;99.90;;;;;;5015316;28;20222;-79
2023/11/29 08:17:56;;;;;;;7.57;7.15;;;2.20;99.90;;;;;;5015218;28;20195;-79
2023/11/29 08:20:24;;;;;;;6.97;6.57;;;2.20;99.90;;;;;;5012672;28;20206;-78
2023/11/29 08:22:53;;;;;;;7.30;6.80;;;2.20;99.90;;;;;;5017341;28;20186;-78
2023/11/29 08:25:24;;;;;;;7.60;7.20;;;2.20;99.90;;;;;;5017726;28;20223;-78
2023/11/29 08:27:53;;;;;;;6.90;6.50;;;2.30;99.90;;;;;;5014333;28;20199;-79
2023/11/29 08:30:21;;;;;;;7.78;7.32;;;2.20;99.90;;;;;;5015735;28;20277;-77
2023/11/29 08:32:50;;;;;;;8.43;7.82;;;2.30;99.90;;;;;;5017302;28;20197;-79
2023/11/29 08:35:18;;;;;;;7.45;7.05;;;2.40;99.90;;;;;;5010114;28;20304;-78
2023/11/29 08:37:48;;;;;;;7.80;7.30;;;2.40;99.90;;;;;;5018703;28;20203;-79
2023/11/29 08:40:17;;;;;;;7.10;6.70;;;2.40;99.90;;;;;;5012199;28;20274;-79
2023/11/29 08:42:45;;;;;;;8.27;7.68;;;2.40;99.90;;;;;;5016905;28;20939;-79
2023/11/29 08:45:14;;;;;;;7.70;7.30;;;2.30;99.90;;;;;;5014665;28;20316;-78
2023/11/29 08:47:43;;;;;;;8.07;7.70;;;2.40;99.90;;;;;;5015288;28;20437;-78
2023/11/29 08:50:11;;;;;;;6.75;6.45;;;2.50;99.90;;;;;;5017708;28;20751;-78
2023/11/29 08:52:42;;;;;;;7.90;7.40;;;2.50;99.90;;;;;;5018120;28;20226;-79
2023/11/29 08:55:10;;;;;;;7.85;7.35;;;2.50;99.90;;;;;;5017978;28;20309;-79
2023/11/29 08:57:39;;;;;;;7.50;7.20;;;2.50;99.90;;;;;;5016731;28;20217;-78
2023/11/29 09:00:09;;;;;;;8.85;8.35;;;2.50;99.90;;;;;;5016571;28;20217;-79
2023/11/29 09:02:38;;;;;;;8.02;7.32;;;2.60;99.90;;;;;;5018389;28;20241;-79
2023/11/29 09:05:08;;;;;;;7.80;7.40;;;2.50;99.90;;;;;;5017335;28;20273;-78
2023/11/29 09:07:36;;;;;;;8.02;7.63;;;2.60;99.90;;;;;;5017598;28;20205;-79
2023/11/29 09:10:06;;;;;;;8.05;7.60;;;2.50;99.90;;;;;;5016188;28;20198;-79
2023/11/29 09:12:35;;;;;;;8.20;7.70;;;2.50;99.90;;;;;;5020440;28;20214;-78
2023/11/29 09:15:05;;;;;;;8.65;8.15;;;2.50;99.90;;;;;;5015853;28;20303;-78
2023/11/29 09:17:34;;;;;;;8.43;7.93;;;2.50;99.90;;;;;;5022334;28;21062;-78
2023/11/29 09:20:05;;;;;;;8.32;7.82;;;2.50;99.90;;;;;;5022078;28;20269;-77
2023/11/29 09:22:33;;;;;;;8.85;8.25;;;2.50;99.90;;;;;;5018058;28;20241;-78
2023/11/29 09:25:02;;;;;;;8.50;8.10;;;2.60;99.90;;;;;;5018753;28;20313;-78
2023/11/29 09:27:33;;;;;;;8.00;7.50;;;2.70;99.90;;;;;;5017724;28;20213;-78
2023/11/29 09:30:01;;;;;;;8.57;8.07;;;2.80;99.90;;;;;;5017929;28;20253;-78
2023/11/29 09:32:32;;;;;;;8.27;7.78;;;2.90;99.90;;;;;;5019171;28;20230;-78
2023/11/29 09:35:00;;;;;;;8.40;8.00;;;2.90;99.90;;;;;;5022332;28;20229;-78
2023/11/29 09:37:30;;;;;;;8.73;8.20;;;3.00;99.90;;;;;;5020845;28;20190;-78
2023/11/29 09:39:58;;;;;;;7.97;7.47;;;2.90;99.90;;;;;;5020072;28;20217;-79
2023/11/29 09:42:30;;;;;;;7.60;7.20;;;2.90;99.90;;;;;;5022281;28;20198;-79
2023/11/29 09:44:59;;;;;;;8.85;8.00;;;2.90;99.90;;;;;;5019650;28;20576;-80
2023/11/29 09:47:27;;;;;;;7.88;7.55;;;2.80;99.90;;;;;;5020457;28;20244;-78
2023/11/29 09:49:58;;;;;;;7.65;7.25;;;2.70;99.90;;;;;;5022102;28;20203;-79
2023/11/29 09:52:28;;;;;;;7.90;7.50;;;2.80;99.90;;;;;;5019385;28;20219;-78
2023/11/29 09:54:56;;;;;;;7.97;7.57;;;2.80;99.90;;;;;;5019103;28;20218;-79
2023/11/29 09:57:25;;;;;;;7.38;7.07;;;2.70;99.90;;;;;;5020539;28;20626;-79
2023/11/29 09:59:54;;;;;;;8.65;8.07;;;2.70;99.90;;;;;;5021341;28;20218;-79
2023/11/29 10:02:23;;;;;;;8.85;8.18;;;2.60;99.90;;;;;;5018377;28;20210;-78
2023/11/29 10:04:51;;;;;;;8.13;7.72;;;2.70;99.90;;;;;;5018702;28;20233;-78
2023/11/29 10:07:20;;;;;;;7.97;7.57;;;2.80;99.90;;;;;;5018268;28;20198;-78
2023/11/29 10:09:49;;;;;;;7.60;7.22;;;2.90;99.90;;;;;;5019252;28;20199;-79
2023/11/29 10:12:17;;;;;;;8.35;7.95;;;3.70;99.90;;;;;;5018790;28;20590;-78
2023/11/29 10:14:46;;;;;;;8.40;7.80;;;3.90;99.90;;;;;;5017491;28;20230;-78
2023/11/29 10:17:18;;;;;;;8.13;7.72;;;3.90;99.90;;;;;;5021600;28;20226;-78
2023/11/29 10:19:47;;;;;;;8.10;7.65;;;3.60;99.90;;;;;;5026910;28;20194;-78
2023/11/29 10:22:15;;;;;;;7.40;7.10;;;3.40;99.90;;;;;;5020889;28;20206;-77
2023/11/29 10:24:44;;;;;;;8.02;7.53;;;3.30;99.90;;;;;;5020649;28;20225;-78
2023/11/29 10:27:16;;;;;;;7.85;7.45;;;3.30;99.90;;;;;;5020335;28;20668;-78
2023/11/29 10:29:45;;;;;;;7.55;7.15;;;3.30;99.90;;;;;;5020125;28;20202;-78
2023/11/29 10:32:14;;;;;;;7.00;6.70;;;3.30;99.90;;;;;;5021556;28;20229;-78
2023/11/29 10:34:42;;;;;;;8.20;7.85;;;3.40;99.90;;;;;;5022767;28;20296;-78
2023/11/29 10:37:10;;;;;;;8.32;7.93;;;3.40;99.90;;;;;;5015369;28;20285;-78
2023/11/29 10:39:39;;;;;;;7.70;7.40;;;3.40;99.90;;;;;;5017620;28;20597;-79
2023/11/29 10:42:10;;;;;;;8.93;8.43;;;3.50;99.90;;;;;;5020737;28;20199;-78
2023/11/29 10:44:40;;;;;;;7.13;6.82;;;3.50;99.90;;;;;;5016252;28;20316;-79
2023/11/29 10:47:17;;;;;;;7.80;7.40;;;3.50;99.90;;;;;;5022495;28;20711;-78
2023/11/29 10:49:49;;;;;;;7.18;6.78;;;3.50;99.90;;;;;;5021349;28;20201;-79
2023/11/29 10:52:18;;;;;;;6.95;6.47;;;3.40;99.90;;;;;;5017615;28;20215;-79
2023/11/29 10:54:47;;;;;;;6.63;6.30;;;3.30;99.90;;;;;;5020384;28;20215;-77
2023/11/29 10:57:20;;;;;;;7.30;6.90;;;3.30;99.90;;;;;;5018392;28;20202;-78
2023/11/29 10:59:57;;;;;;;7.05;6.65;;;3.30;99.90;;;;;;5020262;28;20230;-79
2023/11/29 11:02:28;;;;;;;7.13;6.82;;;3.20;99.90;;;;;;5015390;28;20699;-78
2023/11/29 11:05:05;;;;;;;7.30;6.93;;;3.10;99.90;;;;;;5023907;28;20294;-78
2023/11/29 11:07:41;;;;;;;7.25;6.95;;;3.00;99.90;;;;;;5030000;28;20194;-79
2023/11/29 11:10:11;;;;;;;8.43;7.72;;;3.10;99.90;;;;;;5016287;28;20211;-78
2023/11/29 11:12:40;;;;;;;7.35;7.05;;;3.20;99.90;;;;;;5018569;28;20215;-79
2023/11/29 11:15:14;;;;;;;7.05;6.65;;;3.20;99.90;;;;;;5018682;28;20869;-79
2023/11/29 11:17:44;;;;;;;7.45;7.15;;;3.30;99.90;;;;;;5019249;28;20216;-79
2023/11/29 11:20:13;;;;;;;8.05;7.68;;;3.50;99.90;;;;;;5018637;28;20698;-78
2023/11/29 11:22:43;;;;;;;8.02;7.60;;;3.90;99.90;;;;;;5019738;28;20226;-78
2023/11/29 11:25:13;;;;;;;8.30;8.00;;;4.20;99.90;;;;;;5018986;28;20663;-78
2023/11/29 11:27:43;;;;;;;8.15;7.75;;;4.30;99.90;;;;;;5019859;28;20376;-77
2023/11/29 11:30:26;;;;;;;9.07;8.68;;;4.40;99.90;;;;;;5015476;28;20261;-78
2023/11/29 11:32:58;;;;;;;9.23;8.93;;;4.50;99.90;;;;;;5018033;28;20222;-78
2023/11/29 11:35:36;;;;;;;8.87;8.47;;;4.70;99.90;;;;;;5015684;28;20546;-76
2023/11/29 11:38:09;;;;;;;9.13;8.73;;;5.00;99.90;;;;;;5020007;28;20901;-78
2023/11/29 11:40:39;;;;;;;8.93;8.60;;;4.90;99.90;;;;;;5015231;28;20557;-77
2023/11/29 11:43:09;;;;;;;8.30;8.00;;;5.20;99.90;;;;;;5008654;28;20194;-79
2023/11/29 11:45:45;;;;;;;8.13;7.73;;;5.30;99.90;;;;;;5009879;28;20472;-79
2023/11/29 11:48:13;;;;;;;8.17;7.83;;;5.20;99.90;;;;;;5009827;28;20452;-78
2023/11/29 11:50:41;;;;;;;8.10;7.70;;;5.40;99.90;;;;;;5016930;28;20460;-79
2023/11/29 11:53:09;;;;;;;7.90;7.50;;;5.50;99.90;;;;;;5013156;28;20505;-78
2023/11/29 11:55:40;;;;;;;7.77;7.57;;;5.50;99.90;;;;;;5009989;28;20485;-78
2023/11/29 11:58:09;;;;;;;7.37;7.07;;;5.40;99.90;;;;;;5012119;28;20461;-77
2023/11/29 12:00:40;;;;;;;8.30;8.07;;;5.40;99.90;;;;;;5008999;28;21110;-78
2023/11/29 12:03:09;;;;;;;8.23;7.73;;;5.30;99.90;;;;;;5010031;28;21552;-78
2023/11/29 12:05:39;;;;;;;8.30;7.80;;;5.20;99.90;;;;;;5012534;28;20512;-78
2023/11/29 12:08:09;;;;;;;7.80;7.40;;;5.10;99.90;;;;;;5008452;28;20667;-78
2023/11/29 12:10:38;;;;;;;7.90;7.60;;;5.10;99.90;;;;;;5016263;28;20539;-80
2023/11/29 12:13:06;;;;;;;7.77;7.30;;;5.00;99.90;;;;;;5007808;28;20488;-78
2023/11/29 12:15:35;;;;;;;7.40;7.20;;;5.00;99.90;;;;;;5015010;28;20520;-78
2023/11/29 12:18:15;;;;;;;7.10;6.80;;;5.00;99.90;;;;;;5013486;28;20453;-79
2023/11/29 12:20:44;;;;;;;7.90;7.60;;;4.90;99.90;;;;;;5017032;28;20532;-77
2023/11/29 12:23:14;;;;;;;7.90;7.50;;;4.90;99.90;;;;;;5016777;28;20510;-77
2023/11/29 12:25:43;;;;;;;6.80;6.60;;;4.80;99.90;;;;;;5014585;28;20995;-78
2023/11/29 12:28:12;;;;;;;7.27;7.00;;;4.90;99.90;;;;;;5015420;28;20928;-78
2023/11/29 12:30:42;;;;;;;7.80;7.60;;;4.90;99.90;;;;;;5016233;28;20464;-78
2023/11/29 12:33:10;;;;;;;8.50;8.20;;;4.90;99.90;;;;;;5015942;28;20484;-78
2023/11/29 12:35:40;;;;;;;8.00;7.73;;;5.00;99.90;;;;;;5017417;28;20943;-77
2023/11/29 12:38:08;;;;;;;8.27;7.97;;;5.00;99.90;;;;;;5014057;28;20995;-77
2023/11/29 12:40:37;;;;;;;9.00;8.30;;;5.00;99.90;;;;;;5006197;28;20453;-78
2023/11/29 12:43:05;;;;;;;7.47;7.20;;;5.00;99.90;;;;;;5016417;28;20464;-77
2023/11/29 12:45:34;;;;;;;7.93;7.73;;;5.00;99.90;;;;;;5015853;28;20544;-78
2023/11/29 12:48:02;;;;;;;7.10;6.90;;;5.00;99.90;;;;;;5015568;28;20456;-78
2023/11/29 12:50:32;;;;;;;8.00;7.70;;;4.90;99.90;;;;;;5014823;28;20512;-78
2023/11/29 12:53:01;;;;;;;7.60;7.30;;;4.80;99.90;;;;;;5013610;28;21096;-79
2023/11/29 12:55:29;;;;;;;7.37;7.07;;;4.70;99.90;;;;;;5013796;28;20480;-77
2023/11/29 12:57:58;;;;;;;6.90;6.60;;;4.70;99.90;;;;;;5009218;28;20468;-77
2023/11/29 13:00:26;;;;;;;7.20;6.90;;;4.60;99.90;;;;;;5014459;28;21533;-80
2023/11/29 13:02:54;;;;;;;7.20;6.90;;;4.60;99.90;;;;;;5017131;28;20572;-79
2023/11/29 13:05:22;;;;;;;6.50;6.30;;;4.60;99.90;;;;;;5015910;28;20560;-79